Terminal Aerodrome Forecast
Issued by NWS

Home | Current Version | Previous Version | Text Only | Print | Product List | Glossary On
Versions: 1 2 3 4 5 6 7 8 9 10 11 12 13 14 15 16 17 18 19 20
748
FTUS44 KTSA 202335
TAFXNA
TAF
KXNA 202335Z 2100/2124 25008KT P6SM OVC035
      TEMPO 2100/2104 BKN025
     FM210600 VRB03KT 4SM BR OVC025
      TEMPO 2109/2113 2SM BR OVC010
     FM211500 34005KT 4SM BR OVC015
     FM211800 35010KT P6SM SCT250=

USA.gov is the U.S. government's official web portal to all federal, state and local government web resources and services.